sensor_id;sensor_type;location;lat;lon;timestamp;P1;durP1;ratioP1;P2;durP2;ratioP2
38226;SDS011;24026;49.446;8.576;2023-12-20T00:02:20;125.60;;;112.50;;
38226;SDS011;24026;49.446;8.576;2023-12-20T00:04:40;125.40;;;112.32;;
38226;SDS011;24026;49.446;8.576;2023-12-20T00:07:00;120.72;;;107.75;;
38226;SDS011;24026;49.446;8.576;2023-12-20T00:09:21;123.57;;;110.28;;
38226;SDS011;24026;49.446;8.576;2023-12-20T00:11:42;127.18;;;113.88;;
38226;SDS011;24026;49.446;8.576;2023-12-20T00:14:02;126.85;;;113.65;;
38226;SDS011;24026;49.446;8.576;2023-12-20T00:16:22;125.55;;;112.45;;
38226;SDS011;24026;49.446;8.576;2023-12-20T00:18:43;125.80;;;112.68;;
38226;SDS011;24026;49.446;8.576;2023-12-20T00:21:03;126.07;;;112.80;;
38226;SDS011;24026;49.446;8.576;2023-12-20T00:23:24;118.88;;;106.10;;
38226;SDS011;24026;49.446;8.576;2023-12-20T00:25:44;127.32;;;114.18;;
38226;SDS011;24026;49.446;8.576;2023-12-20T00:28:04;126.47;;;113.30;;
38226;SDS011;24026;49.446;8.576;2023-12-20T00:30:25;120.28;;;107.22;;
38226;SDS011;24026;49.446;8.576;2023-12-20T00:32:46;127.38;;;114.15;;
38226;SDS011;24026;49.446;8.576;2023-12-20T00:35:06;126.88;;;113.68;;
38226;SDS011;24026;49.446;8.576;2023-12-20T00:37:27;124.78;;;111.68;;
38226;SDS011;24026;49.446;8.576;2023-12-20T00:39:47;124.75;;;111.60;;
38226;SDS011;24026;49.446;8.576;2023-12-20T00:42:08;120.25;;;107.35;;
38226;SDS011;24026;49.446;8.576;2023-12-20T00:44:28;123.22;;;110.22;;
38226;SDS011;24026;49.446;8.576;2023-12-20T00:46:49;122.82;;;109.78;;
38226;SDS011;24026;49.446;8.576;2023-12-20T00:49:09;125.95;;;112.78;;
38226;SDS011;24026;49.446;8.576;2023-12-20T00:51:29;124.63;;;111.63;;
38226;SDS011;24026;49.446;8.576;2023-12-20T00:53:50;126.40;;;113.20;;
38226;SDS011;24026;49.446;8.576;2023-12-20T00:56:14;125.13;;;112.05;;
38226;SDS011;24026;49.446;8.576;2023-12-20T00:58:34;123.75;;;110.65;;
38226;SDS011;24026;49.446;8.576;2023-12-20T01:00:55;121.40;;;108.40;;
38226;SDS011;24026;49.446;8.576;2023-12-20T01:03:15;121.75;;;108.88;;
38226;SDS011;24026;49.446;8.576;2023-12-20T01:05:36;123.00;;;109.90;;
38226;SDS011;24026;49.446;8.576;2023-12-20T01:07:56;125.85;;;112.78;;
38226;SDS011;24026;49.446;8.576;2023-12-20T01:10:16;125.07;;;111.75;;
38226;SDS011;24026;49.446;8.576;2023-12-20T01:12:37;124.63;;;111.60;;
38226;SDS011;24026;49.446;8.576;2023-12-20T01:14:57;123.70;;;110.72;;
38226;SDS011;24026;49.446;8.576;2023-12-20T01:17:18;119.97;;;107.13;;
38226;SDS011;24026;49.446;8.576;2023-12-20T01:19:38;124.20;;;111.20;;
38226;SDS011;24026;49.446;8.576;2023-12-20T01:21:59;120.70;;;107.80;;
38226;SDS011;24026;49.446;8.576;2023-12-20T01:24:19;125.20;;;112.20;;
38226;SDS011;24026;49.446;8.576;2023-12-20T01:26:40;124.57;;;111.57;;
38226;SDS011;24026;49.446;8.576;2023-12-20T01:29:00;120.40;;;107.50;;
38226;SDS011;24026;49.446;8.576;2023-12-20T01:31:21;125.68;;;112.47;;
38226;SDS011;24026;49.446;8.576;2023-12-20T01:33:41;122.53;;;109.65;;
38226;SDS011;24026;49.446;8.576;2023-12-20T01:36:01;122.93;;;109.88;;
38226;SDS011;24026;49.446;8.576;2023-12-20T01:38:22;117.85;;;105.03;;
38226;SDS011;24026;49.446;8.576;2023-12-20T01:40:43;122.22;;;109.28;;
38226;SDS011;24026;49.446;8.576;2023-12-20T01:43:07;125.80;;;112.75;;
38226;SDS011;24026;49.446;8.576;2023-12-20T01:45:28;124.15;;;110.95;;
38226;SDS011;24026;49.446;8.576;2023-12-20T01:47:49;124.18;;;111.00;;
38226;SDS011;24026;49.446;8.576;2023-12-20T01:50:09;124.38;;;110.85;;
38226;SDS011;24026;49.446;8.576;2023-12-20T01:52:30;122.30;;;109.28;;
38226;SDS011;24026;49.446;8.576;2023-12-20T01:54:50;121.28;;;108.38;;
38226;SDS011;24026;49.446;8.576;2023-12-20T01:57:11;122.15;;;109.10;;
38226;SDS011;24026;49.446;8.576;2023-12-20T01:59:31;125.53;;;112.43;;
38226;SDS011;24026;49.446;8.576;2023-12-20T02:01:52;123.70;;;110.70;;
38226;SDS011;24026;49.446;8.576;2023-12-20T02:04:12;124.82;;;111.72;;
38226;SDS011;24026;49.446;8.576;2023-12-20T02:06:33;121.88;;;109.05;;
38226;SDS011;24026;49.446;8.576;2023-12-20T02:08:54;123.00;;;110.05;;
38226;SDS011;24026;49.446;8.576;2023-12-20T02:11:15;122.93;;;109.90;;
38226;SDS011;24026;49.446;8.576;2023-12-20T02:13:35;123.78;;;110.78;;
38226;SDS011;24026;49.446;8.576;2023-12-20T02:15:55;117.20;;;104.60;;
38226;SDS011;24026;49.446;8.576;2023-12-20T02:18:16;123.15;;;110.25;;
38226;SDS011;24026;49.446;8.576;2023-12-20T02:20:37;123.72;;;110.72;;
38226;SDS011;24026;49.446;8.576;2023-12-20T02:22:57;123.38;;;110.50;;
38226;SDS011;24026;49.446;8.576;2023-12-20T02:25:17;123.30;;;110.40;;
38226;SDS011;24026;49.446;8.576;2023-12-20T02:27:38;118.53;;;105.82;;
38226;SDS011;24026;49.446;8.576;2023-12-20T02:29:59;124.25;;;111.25;;
38226;SDS011;24026;49.446;8.576;2023-12-20T02:32:20;120.22;;;107.47;;
38226;SDS011;24026;49.446;8.576;2023-12-20T02:34:41;120.30;;;107.60;;
38226;SDS011;24026;49.446;8.576;2023-12-20T02:37:02;121.95;;;109.07;;
38226;SDS011;24026;49.446;8.576;2023-12-20T02:39:22;121.00;;;108.13;;
38226;SDS011;24026;49.446;8.576;2023-12-20T02:41:42;123.03;;;110.15;;
38226;SDS011;24026;49.446;8.576;2023-12-20T02:44:03;118.60;;;105.80;;
38226;SDS011;24026;49.446;8.576;2023-12-20T02:46:23;123.30;;;110.40;;
38226;SDS011;24026;49.446;8.576;2023-12-20T02:48:44;121.88;;;109.10;;
38226;SDS011;24026;49.446;8.576;2023-12-20T02:51:04;123.13;;;110.13;;
38226;SDS011;24026;49.446;8.576;2023-12-20T02:53:25;122.32;;;109.53;;
38226;SDS011;24026;49.446;8.576;2023-12-20T02:55:45;121.25;;;108.40;;
38226;SDS011;24026;49.446;8.576;2023-12-20T02:58:06;117.20;;;104.50;;
38226;SDS011;24026;49.446;8.576;2023-12-20T03:00:26;122.53;;;109.78;;
38226;SDS011;24026;49.446;8.576;2023-12-20T03:02:47;123.43;;;110.55;;
38226;SDS011;24026;49.446;8.576;2023-12-20T03:05:07;116.97;;;104.40;;
38226;SDS011;24026;49.446;8.576;2023-12-20T03:07:28;123.50;;;110.53;;
38226;SDS011;24026;49.446;8.576;2023-12-20T03:09:48;123.72;;;110.80;;
38226;SDS011;24026;49.446;8.576;2023-12-20T03:12:09;118.28;;;105.63;;
38226;SDS011;24026;49.446;8.576;2023-12-20T03:14:29;123.20;;;110.28;;
38226;SDS011;24026;49.446;8.576;2023-12-20T03:16:50;118.32;;;105.65;;
38226;SDS011;24026;49.446;8.576;2023-12-20T03:19:10;117.60;;;104.97;;
38226;SDS011;24026;49.446;8.576;2023-12-20T03:21:31;123.00;;;110.20;;
38226;SDS011;24026;49.446;8.576;2023-12-20T03:23:51;117.22;;;104.60;;
38226;SDS011;24026;49.446;8.576;2023-12-20T03:26:11;121.85;;;109.05;;
38226;SDS011;24026;49.446;8.576;2023-12-20T03:28:32;122.95;;;110.00;;
38226;SDS011;24026;49.446;8.576;2023-12-20T03:30:52;117.15;;;104.57;;
38226;SDS011;24026;49.446;8.576;2023-12-20T03:33:13;122.38;;;109.47;;
38226;SDS011;24026;49.446;8.576;2023-12-20T03:35:33;123.15;;;110.07;;
38226;SDS011;24026;49.446;8.576;2023-12-20T03:37:54;120.80;;;108.15;;
38226;SDS011;24026;49.446;8.576;2023-12-20T03:40:14;122.75;;;109.95;;
38226;SDS011;24026;49.446;8.576;2023-12-20T03:42:35;120.68;;;107.95;;
38226;SDS011;24026;49.446;8.576;2023-12-20T03:44:55;120.47;;;107.72;;
38226;SDS011;24026;49.446;8.576;2023-12-20T03:47:15;117.72;;;105.05;;
38226;SDS011;24026;49.446;8.576;2023-12-20T03:49:36;120.95;;;108.25;;
38226;SDS011;24026;49.446;8.576;2023-12-20T03:51:57;122.13;;;109.22;;
38226;SDS011;24026;49.446;8.576;2023-12-20T03:54:17;116.45;;;103.90;;
38226;SDS011;24026;49.446;8.576;2023-12-20T03:56:37;121.57;;;108.82;;
38226;SDS011;24026;49.446;8.576;2023-12-20T03:58:58;121.57;;;108.78;;
38226;SDS011;24026;49.446;8.576;2023-12-20T04:01:18;116.70;;;104.13;;
38226;SDS011;24026;49.446;8.576;2023-12-20T04:03:39;123.47;;;110.55;;
38226;SDS011;24026;49.446;8.576;2023-12-20T04:06:00;123.85;;;110.82;;
38226;SDS011;24026;49.446;8.576;2023-12-20T04:08:20;121.22;;;108.43;;
38226;SDS011;24026;49.446;8.576;2023-12-20T04:10:41;120.47;;;107.75;;
38226;SDS011;24026;49.446;8.576;2023-12-20T04:13:01;119.30;;;106.65;;
38226;SDS011;24026;49.446;8.576;2023-12-20T04:15:22;116.80;;;104.13;;
38226;SDS011;24026;49.446;8.576;2023-12-20T04:17:42;121.47;;;108.75;;
38226;SDS011;24026;49.446;8.576;2023-12-20T04:20:02;121.65;;;108.90;;
38226;SDS011;24026;49.446;8.576;2023-12-20T04:22:23;121.28;;;108.43;;
38226;SDS011;24026;49.446;8.576;2023-12-20T04:24:44;120.28;;;107.55;;
38226;SDS011;24026;49.446;8.576;2023-12-20T04:27:04;120.68;;;107.78;;
38226;SDS011;24026;49.446;8.576;2023-12-20T04:29:25;120.80;;;108.00;;
38226;SDS011;24026;49.446;8.576;2023-12-20T04:31:45;118.25;;;105.70;;
38226;SDS011;24026;49.446;8.576;2023-12-20T04:34:05;123.10;;;110.28;;
38226;SDS011;24026;49.446;8.576;2023-12-20T04:36:26;115.43;;;102.82;;
38226;SDS011;24026;49.446;8.576;2023-12-20T04:38:46;122.40;;;109.63;;
38226;SDS011;24026;49.446;8.576;2023-12-20T04:41:07;121.30;;;108.60;;
38226;SDS011;24026;49.446;8.576;2023-12-20T04:43:28;121.72;;;108.88;;
38226;SDS011;24026;49.446;8.576;2023-12-20T04:45:49;122.32;;;109.47;;
38226;SDS011;24026;49.446;8.576;2023-12-20T04:48:10;122.60;;;109.72;;
38226;SDS011;24026;49.446;8.576;2023-12-20T04:50:30;120.53;;;107.82;;
38226;SDS011;24026;49.446;8.576;2023-12-20T04:52:50;119.72;;;107.03;;
38226;SDS011;24026;49.446;8.576;2023-12-20T04:55:11;116.05;;;103.47;;
38226;SDS011;24026;49.446;8.576;2023-12-20T04:57:32;115.80;;;103.30;;
38226;SDS011;24026;49.446;8.576;2023-12-20T04:59:52;121.85;;;108.97;;
38226;SDS011;24026;49.446;8.576;2023-12-20T05:02:12;121.50;;;108.80;;
38226;SDS011;24026;49.446;8.576;2023-12-20T05:04:33;121.95;;;109.20;;
38226;SDS011;24026;49.446;8.576;2023-12-20T05:06:53;121.18;;;108.47;;
38226;SDS011;24026;49.446;8.576;2023-12-20T05:09:14;117.30;;;104.63;;
38226;SDS011;24026;49.446;8.576;2023-12-20T05:11:34;119.45;;;106.80;;
38226;SDS011;24026;49.446;8.576;2023-12-20T05:13:55;122.03;;;109.25;;
38226;SDS011;24026;49.446;8.576;2023-12-20T05:16:15;123.28;;;110.47;;
38226;SDS011;24026;49.446;8.576;2023-12-20T05:18:37;122.82;;;109.78;;
38226;SDS011;24026;49.446;8.576;2023-12-20T05:20:58;121.13;;;108.45;;
38226;SDS011;24026;49.446;8.576;2023-12-20T05:23:18;121.63;;;108.82;;
38226;SDS011;24026;49.446;8.576;2023-12-20T05:25:40;122.50;;;109.80;;
38226;SDS011;24026;49.446;8.576;2023-12-20T05:28:00;121.20;;;108.53;;
38226;SDS011;24026;49.446;8.576;2023-12-20T05:30:21;123.15;;;110.32;;
38226;SDS011;24026;49.446;8.576;2023-12-20T05:32:41;123.18;;;110.38;;
38226;SDS011;24026;49.446;8.576;2023-12-20T05:35:02;122.30;;;109.53;;
38226;SDS011;24026;49.446;8.576;2023-12-20T05:37:24;118.53;;;105.88;;
38226;SDS011;24026;49.446;8.576;2023-12-20T05:39:44;125.03;;;112.13;;
38226;SDS011;24026;49.446;8.576;2023-12-20T05:42:04;124.22;;;111.43;;
38226;SDS011;24026;49.446;8.576;2023-12-20T05:44:25;124.90;;;112.00;;
38226;SDS011;24026;49.446;8.576;2023-12-20T05:46:45;124.90;;;112.20;;
38226;SDS011;24026;49.446;8.576;2023-12-20T05:49:07;121.40;;;108.80;;
38226;SDS011;24026;49.446;8.576;2023-12-20T05:51:27;124.55;;;111.85;;
38226;SDS011;24026;49.446;8.576;2023-12-20T05:53:48;124.03;;;111.38;;
38226;SDS011;24026;49.446;8.576;2023-12-20T05:56:10;125.28;;;112.47;;
38226;SDS011;24026;49.446;8.576;2023-12-20T05:58:31;123.70;;;110.90;;
38226;SDS011;24026;49.446;8.576;2023-12-20T06:00:54;124.88;;;112.20;;
38226;SDS011;24026;49.446;8.576;2023-12-20T06:03:15;123.43;;;110.78;;
38226;SDS011;24026;49.446;8.576;2023-12-20T06:05:35;125.43;;;112.47;;
38226;SDS011;24026;49.446;8.576;2023-12-20T06:07:56;126.22;;;113.53;;
38226;SDS011;24026;49.446;8.576;2023-12-20T06:10:21;125.55;;;112.43;;
38226;SDS011;24026;49.446;8.576;2023-12-20T06:12:42;129.02;;;116.13;;
38226;SDS011;24026;49.446;8.576;2023-12-20T06:15:03;126.40;;;113.57;;
38226;SDS011;24026;49.446;8.576;2023-12-20T06:17:24;128.60;;;115.68;;
38226;SDS011;24026;49.446;8.576;2023-12-20T06:19:44;129.40;;;116.53;;
38226;SDS011;24026;49.446;8.576;2023-12-20T06:22:08;128.85;;;115.90;;
38226;SDS011;24026;49.446;8.576;2023-12-20T06:24:28;130.15;;;117.13;;
38226;SDS011;24026;49.446;8.576;2023-12-20T06:26:50;129.18;;;116.28;;
38226;SDS011;24026;49.446;8.576;2023-12-20T06:29:11;129.57;;;116.57;;
38226;SDS011;24026;49.446;8.576;2023-12-20T06:31:33;128.88;;;115.95;;
38226;SDS011;24026;49.446;8.576;2023-12-20T06:33:56;131.45;;;118.25;;
38226;SDS011;24026;49.446;8.576;2023-12-20T06:36:20;130.82;;;117.63;;
38226;SDS011;24026;49.446;8.576;2023-12-20T06:38:42;129.82;;;116.82;;
38226;SDS011;24026;49.446;8.576;2023-12-20T06:41:02;129.82;;;116.82;;
38226;SDS011;24026;49.446;8.576;2023-12-20T06:43:23;132.73;;;119.13;;
38226;SDS011;24026;49.446;8.576;2023-12-20T06:45:44;132.35;;;119.18;;
38226;SDS011;24026;49.446;8.576;2023-12-20T06:48:05;128.93;;;115.72;;
38226;SDS011;24026;49.446;8.576;2023-12-20T06:50:26;134.63;;;120.72;;
38226;SDS011;24026;49.446;8.576;2023-12-20T06:52:47;135.85;;;122.00;;
38226;SDS011;24026;49.446;8.576;2023-12-20T06:55:08;136.02;;;122.18;;
38226;SDS011;24026;49.446;8.576;2023-12-20T06:57:30;133.25;;;119.53;;
38226;SDS011;24026;49.446;8.576;2023-12-20T06:59:51;138.80;;;124.50;;
38226;SDS011;24026;49.446;8.576;2023-12-20T07:02:13;136.48;;;122.78;;
38226;SDS011;24026;49.446;8.576;2023-12-20T07:04:39;135.45;;;121.63;;
38226;SDS011;24026;49.446;8.576;2023-12-20T07:07:05;139.15;;;124.63;;
38226;SDS011;24026;49.446;8.576;2023-12-20T07:09:26;142.02;;;127.03;;
38226;SDS011;24026;49.446;8.576;2023-12-20T07:11:48;138.63;;;123.50;;
38226;SDS011;24026;49.446;8.576;2023-12-20T07:14:11;139.65;;;125.40;;
38226;SDS011;24026;49.446;8.576;2023-12-20T07:16:31;140.63;;;126.07;;
38226;SDS011;24026;49.446;8.576;2023-12-20T07:18:53;141.60;;;127.30;;
38226;SDS011;24026;49.446;8.576;2023-12-20T07:21:13;142.45;;;128.02;;
38226;SDS011;24026;49.446;8.576;2023-12-20T07:23:34;141.10;;;126.70;;
38226;SDS011;24026;49.446;8.576;2023-12-20T07:25:55;141.65;;;127.18;;
38226;SDS011;24026;49.446;8.576;2023-12-20T07:28:16;142.65;;;128.00;;
38226;SDS011;24026;49.446;8.576;2023-12-20T07:30:37;142.25;;;127.13;;
38226;SDS011;24026;49.446;8.576;2023-12-20T07:32:58;139.57;;;125.13;;
38226;SDS011;24026;49.446;8.576;2023-12-20T07:35:18;139.60;;;125.60;;
38226;SDS011;24026;49.446;8.576;2023-12-20T07:37:39;139.38;;;125.10;;
38226;SDS011;24026;49.446;8.576;2023-12-20T07:40:01;140.35;;;125.95;;
38226;SDS011;24026;49.446;8.576;2023-12-20T07:42:24;140.60;;;126.47;;
38226;SDS011;24026;49.446;8.576;2023-12-20T07:44:49;141.95;;;127.50;;
38226;SDS011;24026;49.446;8.576;2023-12-20T07:47:10;140.98;;;125.78;;
38226;SDS011;24026;49.446;8.576;2023-12-20T07:49:37;143.02;;;128.27;;
38226;SDS011;24026;49.446;8.576;2023-12-20T07:52:00;143.68;;;128.45;;
38226;SDS011;24026;49.446;8.576;2023-12-20T07:54:20;143.75;;;129.02;;
38226;SDS011;24026;49.446;8.576;2023-12-20T07:56:40;141.98;;;127.00;;
38226;SDS011;24026;49.446;8.576;2023-12-20T07:59:03;144.45;;;129.10;;
38226;SDS011;24026;49.446;8.576;2023-12-20T08:01:23;143.32;;;128.20;;
38226;SDS011;24026;49.446;8.576;2023-12-20T08:03:45;142.32;;;127.03;;
38226;SDS011;24026;49.446;8.576;2023-12-20T08:06:06;143.65;;;128.20;;
38226;SDS011;24026;49.446;8.576;2023-12-20T08:08:27;141.23;;;126.45;;
38226;SDS011;24026;49.446;8.576;2023-12-20T08:10:47;142.52;;;127.47;;
38226;SDS011;24026;49.446;8.576;2023-12-20T08:13:09;143.32;;;128.40;;
38226;SDS011;24026;49.446;8.576;2023-12-20T08:15:29;144.23;;;128.82;;
38226;SDS011;24026;49.446;8.576;2023-12-20T08:17:49;143.25;;;128.32;;
38226;SDS011;24026;49.446;8.576;2023-12-20T08:20:14;143.48;;;128.57;;
38226;SDS011;24026;49.446;8.576;2023-12-20T08:22:36;144.07;;;128.68;;
38226;SDS011;24026;49.446;8.576;2023-12-20T08:24:58;143.18;;;128.35;;
38226;SDS011;24026;49.446;8.576;2023-12-20T08:27:20;144.10;;;129.10;;
38226;SDS011;24026;49.446;8.576;2023-12-20T08:29:41;145.88;;;130.57;;
38226;SDS011;24026;49.446;8.576;2023-12-20T08:32:05;144.82;;;129.52;;
38226;SDS011;24026;49.446;8.576;2023-12-20T08:34:25;144.27;;;129.60;;
38226;SDS011;24026;49.446;8.576;2023-12-20T08:36:47;146.98;;;132.10;;
38226;SDS011;24026;49.446;8.576;2023-12-20T08:39:08;144.80;;;130.05;;
38226;SDS011;24026;49.446;8.576;2023-12-20T08:41:28;145.30;;;130.68;;
38226;SDS011;24026;49.446;8.576;2023-12-20T08:43:48;145.50;;;130.98;;
38226;SDS011;24026;49.446;8.576;2023-12-20T08:46:10;144.15;;;129.27;;
38226;SDS011;24026;49.446;8.576;2023-12-20T08:48:31;143.93;;;129.32;;
38226;SDS011;24026;49.446;8.576;2023-12-20T08:50:52;145.30;;;130.70;;
38226;SDS011;24026;49.446;8.576;2023-12-20T08:53:12;147.02;;;132.13;;
38226;SDS011;24026;49.446;8.576;2023-12-20T08:55:34;143.93;;;129.48;;
38226;SDS011;24026;49.446;8.576;2023-12-20T08:57:54;142.63;;;128.05;;
38226;SDS011;24026;49.446;8.576;2023-12-20T09:00:14;143.55;;;129.07;;
38226;SDS011;24026;49.446;8.576;2023-12-20T09:02:35;142.32;;;127.45;;
38226;SDS011;24026;49.446;8.576;2023-12-20T09:04:57;143.55;;;128.93;;
38226;SDS011;24026;49.446;8.576;2023-12-20T09:07:21;145.43;;;130.38;;
38226;SDS011;24026;49.446;8.576;2023-12-20T09:09:42;141.07;;;126.72;;
38226;SDS011;24026;49.446;8.576;2023-12-20T09:12:04;141.90;;;127.28;;
38226;SDS011;24026;49.446;8.576;2023-12-20T09:14:25;142.90;;;128.20;;
38226;SDS011;24026;49.446;8.576;2023-12-20T09:16:45;142.07;;;127.57;;
38226;SDS011;24026;49.446;8.576;2023-12-20T09:19:07;212.48;;;144.90;;
38226;SDS011;24026;49.446;8.576;2023-12-20T09:21:28;327.58;;;164.95;;
38226;SDS011;24026;49.446;8.576;2023-12-20T09:23:50;266.05;;;152.93;;
38226;SDS011;24026;49.446;8.576;2023-12-20T09:26:11;237.30;;;139.85;;
38226;SDS011;24026;49.446;8.576;2023-12-20T09:28:31;157.95;;;129.45;;
38226;SDS011;24026;49.446;8.576;2023-12-20T09:30:56;141.85;;;126.10;;
38226;SDS011;24026;49.446;8.576;2023-12-20T09:33:17;142.55;;;126.63;;
38226;SDS011;24026;49.446;8.576;2023-12-20T09:35:37;139.98;;;124.40;;
38226;SDS011;24026;49.446;8.576;2023-12-20T09:37:58;143.38;;;127.78;;
38226;SDS011;24026;49.446;8.576;2023-12-20T09:40:19;138.95;;;123.72;;
38226;SDS011;24026;49.446;8.576;2023-12-20T09:42:52;140.18;;;125.40;;
38226;SDS011;24026;49.446;8.576;2023-12-20T09:45:19;139.05;;;124.40;;
38226;SDS011;24026;49.446;8.576;2023-12-20T09:47:45;142.07;;;126.95;;
38226;SDS011;24026;49.446;8.576;2023-12-20T09:50:26;137.55;;;122.80;;
38226;SDS011;24026;49.446;8.576;2023-12-20T09:52:50;138.02;;;123.53;;
38226;SDS011;24026;49.446;8.576;2023-12-20T09:55:13;138.30;;;124.00;;
38226;SDS011;24026;49.446;8.576;2023-12-20T09:57:36;141.15;;;125.88;;
38226;SDS011;24026;49.446;8.576;2023-12-20T09:59:58;140.57;;;125.88;;
38226;SDS011;24026;49.446;8.576;2023-12-20T10:02:19;141.20;;;126.35;;
38226;SDS011;24026;49.446;8.576;2023-12-20T10:04:45;143.20;;;128.45;;
38226;SDS011;24026;49.446;8.576;2023-12-20T10:07:29;142.85;;;128.45;;
38226;SDS011;24026;49.446;8.576;2023-12-20T10:09:51;143.27;;;128.48;;
38226;SDS011;24026;49.446;8.576;2023-12-20T10:12:14;142.25;;;127.50;;
38226;SDS011;24026;49.446;8.576;2023-12-20T10:14:34;140.38;;;126.25;;
38226;SDS011;24026;49.446;8.576;2023-12-20T10:17:00;142.10;;;127.80;;
38226;SDS011;24026;49.446;8.576;2023-12-20T10:19:22;142.60;;;128.13;;
38226;SDS011;24026;49.446;8.576;2023-12-20T10:21:43;141.60;;;126.57;;
38226;SDS011;24026;49.446;8.576;2023-12-20T10:24:05;141.15;;;126.15;;
38226;SDS011;24026;49.446;8.576;2023-12-20T10:26:26;140.43;;;126.07;;
38226;SDS011;24026;49.446;8.576;2023-12-20T10:28:51;142.43;;;127.63;;
38226;SDS011;24026;49.446;8.576;2023-12-20T10:31:51;143.00;;;127.50;;
38226;SDS011;24026;49.446;8.576;2023-12-20T10:34:05;147.65;;;128.98;;
38226;SDS011;24026;49.446;8.576;2023-12-20T10:36:28;161.90;;;128.05;;
38226;SDS011;24026;49.446;8.576;2023-12-20T10:38:52;190.63;;;130.60;;
38226;SDS011;24026;49.446;8.576;2023-12-20T10:41:14;205.50;;;130.57;;
38226;SDS011;24026;49.446;8.576;2023-12-20T10:43:40;223.70;;;130.23;;
38226;SDS011;24026;49.446;8.576;2023-12-20T10:46:03;239.80;;;131.15;;
38226;SDS011;24026;49.446;8.576;2023-12-20T10:48:23;236.57;;;131.32;;
38226;SDS011;24026;49.446;8.576;2023-12-20T10:50:49;227.23;;;132.05;;
38226;SDS011;24026;49.446;8.576;2023-12-20T10:53:11;233.50;;;132.60;;
38226;SDS011;24026;49.446;8.576;2023-12-20T10:55:34;237.18;;;133.25;;
38226;SDS011;24026;49.446;8.576;2023-12-20T10:57:57;214.60;;;130.70;;
38226;SDS011;24026;49.446;8.576;2023-12-20T11:00:40;225.88;;;132.15;;
38226;SDS011;24026;49.446;8.576;2023-12-20T11:03:06;198.63;;;132.10;;
38226;SDS011;24026;49.446;8.576;2023-12-20T11:05:49;231.18;;;134.73;;
38226;SDS011;24026;49.446;8.576;2023-12-20T11:08:44;199.77;;;130.80;;
38226;SDS011;24026;49.446;8.576;2023-12-20T11:11:14;185.73;;;132.00;;
38226;SDS011;24026;49.446;8.576;2023-12-20T11:14:03;191.65;;;130.73;;
38226;SDS011;24026;49.446;8.576;2023-12-20T11:16:24;175.38;;;130.05;;
38226;SDS011;24026;49.446;8.576;2023-12-20T11:18:45;181.05;;;132.30;;
38226;SDS011;24026;49.446;8.576;2023-12-20T11:21:11;173.75;;;131.98;;
38226;SDS011;24026;49.446;8.576;2023-12-20T11:23:36;178.27;;;132.88;;
38226;SDS011;24026;49.446;8.576;2023-12-20T11:25:58;172.68;;;132.77;;
38226;SDS011;24026;49.446;8.576;2023-12-20T11:28:23;167.43;;;131.25;;
38226;SDS011;24026;49.446;8.576;2023-12-20T11:30:53;161.32;;;130.90;;
38226;SDS011;24026;49.446;8.576;2023-12-20T11:33:16;154.30;;;132.63;;
38226;SDS011;24026;49.446;8.576;2023-12-20T11:35:42;165.05;;;131.23;;
38226;SDS011;24026;49.446;8.576;2023-12-20T11:38:10;155.80;;;132.38;;
38226;SDS011;24026;49.446;8.576;2023-12-20T11:40:36;153.68;;;131.43;;
38226;SDS011;24026;49.446;8.576;2023-12-20T11:43:05;157.13;;;133.77;;
38226;SDS011;24026;49.446;8.576;2023-12-20T11:45:26;156.57;;;130.85;;
38226;SDS011;24026;49.446;8.576;2023-12-20T11:47:50;149.70;;;131.35;;
38226;SDS011;24026;49.446;8.576;2023-12-20T11:50:16;149.25;;;129.02;;
38226;SDS011;24026;49.446;8.576;2023-12-20T11:52:43;153.13;;;130.15;;
38226;SDS011;24026;49.446;8.576;2023-12-20T11:55:03;149.40;;;128.57;;
38226;SDS011;24026;49.446;8.576;2023-12-20T11:57:25;146.32;;;129.70;;
38226;SDS011;24026;49.446;8.576;2023-12-20T11:59:46;159.43;;;142.35;;
38226;SDS011;24026;49.446;8.576;2023-12-20T12:02:06;149.13;;;128.20;;
38226;SDS011;24026;49.446;8.576;2023-12-20T12:04:32;144.48;;;128.43;;
38226;SDS011;24026;49.446;8.576;2023-12-20T12:06:53;146.05;;;129.90;;
38226;SDS011;24026;49.446;8.576;2023-12-20T12:09:14;149.52;;;129.05;;
38226;SDS011;24026;49.446;8.576;2023-12-20T12:11:35;142.38;;;126.93;;
38226;SDS011;24026;49.446;8.576;2023-12-20T12:13:55;142.57;;;127.32;;
38226;SDS011;24026;49.446;8.576;2023-12-20T12:16:17;141.05;;;125.80;;
38226;SDS011;24026;49.446;8.576;2023-12-20T12:18:38;142.52;;;127.03;;
38226;SDS011;24026;49.446;8.576;2023-12-20T12:21:01;140.50;;;125.38;;
38226;SDS011;24026;49.446;8.576;2023-12-20T12:23:22;141.20;;;125.97;;
38226;SDS011;24026;49.446;8.576;2023-12-20T12:25:44;137.85;;;122.75;;
38226;SDS011;24026;49.446;8.576;2023-12-20T12:28:05;139.90;;;125.05;;
38226;SDS011;24026;49.446;8.576;2023-12-20T12:30:25;141.57;;;124.10;;
38226;SDS011;24026;49.446;8.576;2023-12-20T12:32:46;141.70;;;123.15;;
38226;SDS011;24026;49.446;8.576;2023-12-20T12:35:07;158.38;;;134.18;;
38226;SDS011;24026;49.446;8.576;2023-12-20T12:37:29;142.35;;;124.15;;
38226;SDS011;24026;49.446;8.576;2023-12-20T12:39:49;148.20;;;125.15;;
38226;SDS011;24026;49.446;8.576;2023-12-20T12:42:10;148.00;;;124.88;;
38226;SDS011;24026;49.446;8.576;2023-12-20T12:44:30;142.70;;;125.68;;
38226;SDS011;24026;49.446;8.576;2023-12-20T12:46:50;151.10;;;125.57;;
38226;SDS011;24026;49.446;8.576;2023-12-20T12:49:13;149.05;;;124.60;;
38226;SDS011;24026;49.446;8.576;2023-12-20T12:51:35;148.15;;;128.35;;
38226;SDS011;24026;49.446;8.576;2023-12-20T12:53:55;152.00;;;127.68;;
38226;SDS011;24026;49.446;8.576;2023-12-20T12:56:16;144.13;;;127.05;;
38226;SDS011;24026;49.446;8.576;2023-12-20T12:58:36;147.80;;;124.97;;
38226;SDS011;24026;49.446;8.576;2023-12-20T13:00:57;144.15;;;125.95;;
38226;SDS011;24026;49.446;8.576;2023-12-20T13:03:17;145.32;;;126.55;;
38226;SDS011;24026;49.446;8.576;2023-12-20T13:05:38;142.80;;;126.43;;
38226;SDS011;24026;49.446;8.576;2023-12-20T13:07:58;142.10;;;126.85;;
38226;SDS011;24026;49.446;8.576;2023-12-20T13:10:18;142.35;;;126.20;;
38226;SDS011;24026;49.446;8.576;2023-12-20T13:12:39;142.13;;;126.70;;
38226;SDS011;24026;49.446;8.576;2023-12-20T13:14:59;142.68;;;126.97;;
38226;SDS011;24026;49.446;8.576;2023-12-20T13:17:20;140.63;;;125.57;;
38226;SDS011;24026;49.446;8.576;2023-12-20T13:19:40;140.73;;;125.88;;
38226;SDS011;24026;49.446;8.576;2023-12-20T13:22:00;142.68;;;127.07;;
38226;SDS011;24026;49.446;8.576;2023-12-20T13:24:21;141.18;;;125.68;;
38226;SDS011;24026;49.446;8.576;2023-12-20T13:26:41;139.80;;;124.82;;